Wymore, Nebraska
Current Conditions -  °F | °C
As of 11:15 AM on Friday 24 Oct 2014 (Local Time) from KBIE Reporting Station
Haze Haze  
Wind Chill: 63°   Ceiling: 600
Heat Index: 63°   Visibility: 5mi
Dew Point: 60°   Wind: 10mph
Humidity: 90%   Direction: 220°SW
Pressure: 29.97"   Gusts: NA
Location:  40.12°N, 96.66°W
Report Text: KBIE 241615Z AUTO 22009KT 5SM BR BKN006 17/16 A2997 RMK AO2 T01740158
Loading
Personal Weather Stations






























Interactive Weather Map
Tropical Storm Tracking
New forecast layout! Learn more

10-Day Weather Forecast

Advertisements
Track Severe Weather on mobile